Time;durP1;ratioP1;P1;durP2;ratioP2;P2;SDS_P1;SDS_P2;PMS_P1;PMS_P2;Temp;Humidity;BMP_temperature;BMP_pressure;BME280_temperature;BME280_humidity;BME280_pressure;Samples;Min_cycle;Max_cycle;Signal;HPM_P1;HPM_P2
2022/11/29 00:00:24;;;;;;;;;;;8.10;99.90;;;;;;5000610;28;19922;-73
2022/11/29 00:02:53;;;;;;;;;;;8.10;99.90;;;;;;5000332;28;20004;-73
2022/11/29 00:05:18;;;;;;;;;;;8.10;99.90;;;;;;5002879;28;19917;-71
2022/11/29 00:07:44;;;;;;;;;;;8.10;99.90;;;;;;4997269;28;19920;-73
2022/11/29 00:10:09;;;;;;;;;;;8.10;99.90;;;;;;5001813;28;20347;-73
2022/11/29 00:12:35;;;;;;;;;;;8.10;99.90;;;;;;5002606;28;19917;-73
2022/11/29 00:15:00;;;;;;;;;;;8.10;99.90;;;;;;5000132;28;20013;-71
2022/11/29 00:17:26;;;;;;;;;;;8.10;99.90;;;;;;5004086;28;19913;-74
2022/11/29 00:19:51;;;;;;;;;;;8.00;99.90;;;;;;4986204;28;20387;-72
2022/11/29 00:22:17;;;;;;;;;;;8.00;99.90;;;;;;5001418;28;19914;-72
2022/11/29 00:24:42;;;;;;;;;;;8.00;99.90;;;;;;5001695;28;20037;-70
2022/11/29 00:27:08;;;;;;;;;;;8.00;99.90;;;;;;5005541;28;19995;-73
2022/11/29 00:29:33;;;;;;;;;;;8.00;99.90;;;;;;4983111;28;19917;-73
2022/11/29 00:31:59;;;;;;;;;;;8.00;99.90;;;;;;5003422;28;19979;-73
2022/11/29 00:34:24;;;;;;;;;;;8.00;99.90;;;;;;5000379;28;20428;-72
2022/11/29 00:36:50;;;;;;;;;;;8.00;99.90;;;;;;5003716;28;19918;-71
2022/11/29 00:39:16;;;;;;;;;;;8.00;99.90;;;;;;4999434;28;20019;-72
2022/11/29 00:41:41;;;;;;;;;;;8.00;99.90;;;;;;4999367;28;19949;-73
2022/11/29 00:44:07;;;;;;;;;;;8.00;99.90;;;;;;5003136;28;19918;-72
2022/11/29 00:46:33;;;;;;;;;;;8.00;99.90;;;;;;5006159;28;19917;-73
2022/11/29 00:48:58;;;;;;;;;;;8.00;99.90;;;;;;5006282;28;20374;-72
2022/11/29 00:51:24;;;;;;;;;;;8.00;99.90;;;;;;5001078;28;20386;-73
2022/11/29 00:53:49;;;;;;;;;;;8.00;99.90;;;;;;5003256;28;19920;-73
2022/11/29 00:56:15;;;;;;;;;;;8.00;99.90;;;;;;5002208;28;19925;-73
2022/11/29 00:58:42;;;;;;;;;;;8.00;99.90;;;;;;4981276;28;19917;-73
2022/11/29 01:01:08;;;;;;;;;;;8.10;99.90;;;;;;5001524;28;19917;-73
2022/11/29 01:03:33;;;;;;;;;;;8.10;99.90;;;;;;5003310;28;20384;-72
2022/11/29 01:06:00;;;;;;;;;;;8.00;99.90;;;;;;4999617;28;20012;-72
2022/11/29 01:08:25;;;;;;;;;;;8.10;99.90;;;;;;4999068;28;19937;-73
2022/11/29 01:10:59;;;;;;;;;;;8.10;99.90;;;;;;4985577;28;19917;-73
2022/11/29 01:13:25;;;;;;;;;;;8.10;99.90;;;;;;5000180;28;19947;-73
2022/11/29 01:15:57;;;;;;;;;;;8.10;99.90;;;;;;5002737;28;20007;-73
2022/11/29 01:18:23;;;;;;;;;;;8.10;99.90;;;;;;4999062;28;20370;-72
2022/11/29 01:21:17;;;;;;;;;;;8.10;99.90;;;;;;5002167;28;20425;-73
2022/11/29 01:23:44;;;;;;;;;;;8.10;99.90;;;;;;4984240;28;20370;-73
2022/11/29 01:26:15;;;;;;;;;;;8.10;99.90;;;;;;4984649;28;19913;-72
2022/11/29 01:28:41;;;;;;;;;;;8.10;99.90;;;;;;5001844;28;19918;-72
2022/11/29 01:31:06;;;;;;;;;;;8.10;99.90;;;;;;4999751;28;20051;-73
2022/11/29 01:33:32;;;;;;;;;;;8.10;99.90;;;;;;4999426;28;19917;-73
2022/11/29 01:35:57;;;;;;;;;;;8.10;99.90;;;;;;5001528;28;20289;-73
2022/11/29 01:38:23;;;;;;;;;;;8.10;99.90;;;;;;4999213;28;19914;-70
2022/11/29 01:40:56;;;;;;;;;;;8.10;99.90;;;;;;4984400;28;20262;-73
2022/11/29 01:43:21;;;;;;;;;;;8.10;99.90;;;;;;4998422;28;19921;-73
2022/11/29 01:45:48;;;;;;;;;;;8.10;99.90;;;;;;5003812;28;19914;-73
2022/11/29 01:48:13;;;;;;;;;;;8.10;99.90;;;;;;5005977;28;19922;-72
2022/11/29 01:50:39;;;;;;;;;;;8.10;99.90;;;;;;4984174;28;19917;-72
2022/11/29 01:53:06;;;;;;;;;;;8.10;99.90;;;;;;5000133;28;19923;-71
2022/11/29 01:55:34;;;;;;;;;;;8.10;99.90;;;;;;5002508;28;19921;-73
2022/11/29 01:58:00;;;;;;;;;;;8.10;99.90;;;;;;4999465;28;19952;-73
2022/11/29 02:00:25;;;;;;;;;;;8.20;99.90;;;;;;5001350;28;19956;-72
2022/11/29 02:02:54;;;;;;;;;;;8.20;99.90;;;;;;4984395;28;19914;-73
2022/11/29 02:05:20;;;;;;;;;;;8.20;99.90;;;;;;4998611;28;20330;-73
2022/11/29 02:07:48;;;;;;;;;;;8.20;99.90;;;;;;5000938;28;20370;-73
2022/11/29 02:10:14;;;;;;;;;;;8.20;99.90;;;;;;4998507;28;19918;-71
2022/11/29 02:12:40;;;;;;;;;;;8.20;99.90;;;;;;5000052;28;19914;-73
2022/11/29 02:15:20;;;;;;;;;;;8.20;99.90;;;;;;4981548;28;19914;-72
2022/11/29 02:17:58;;;;;;;;;;;8.20;99.90;;;;;;5001265;28;19914;-73
2022/11/29 02:20:23;;;;;;;;;;;8.20;99.90;;;;;;4998149;28;19917;-73
2022/11/29 02:23:07;;;;;;;;;;;8.20;99.90;;;;;;5001417;28;19964;-71
2022/11/29 02:25:50;;;;;;;;;;;8.20;99.90;;;;;;5000325;28;20060;-73
2022/11/29 02:28:24;;;;;;;;;;;8.20;99.90;;;;;;5019784;28;19917;-71
2022/11/29 02:30:58;;;;;;;;;;;8.20;99.90;;;;;;4996232;28;19918;-72
2022/11/29 02:33:49;;;;;;;;;;;8.20;99.90;;;;;;4998001;28;19960;-73
2022/11/29 02:36:19;;;;;;;;;;;8.20;99.90;;;;;;4978610;28;19918;-74
2022/11/29 02:39:03;;;;;;;;;;;8.20;99.90;;;;;;5009695;28;19936;-73
2022/11/29 02:41:36;;;;;;;;;;;8.20;99.90;;;;;;4995290;28;19962;-73
2022/11/29 02:44:14;;;;;;;;;;;8.10;99.90;;;;;;5009178;28;19918;-73
2022/11/29 02:46:49;;;;;;;;;;;8.10;99.90;;;;;;5001020;28;20013;-72
2022/11/29 02:49:25;;;;;;;;;;;8.10;99.90;;;;;;5002336;28;19920;-72
2022/11/29 02:51:57;;;;;;;;;;;8.10;99.90;;;;;;5000346;28;19914;-72
2022/11/29 02:54:28;;;;;;;;;;;8.10;99.90;;;;;;5002399;28;20436;-73
2022/11/29 02:56:54;;;;;;;;;;;8.10;99.90;;;;;;4999923;28;20072;-72
2022/11/29 02:59:28;;;;;;;;;;;8.10;99.90;;;;;;4997662;28;20433;-71
2022/11/29 03:02:02;;;;;;;;;;;8.10;99.90;;;;;;4984436;28;19922;-72
2022/11/29 03:04:32;;;;;;;;;;;8.10;99.90;;;;;;5000229;28;19921;-73
2022/11/29 03:07:03;;;;;;;;;;;8.10;99.90;;;;;;4998637;28;20330;-73
2022/11/29 03:09:35;;;;;;;;;;;8.10;99.90;;;;;;4999614;28;20007;-72
2022/11/29 03:12:19;;;;;;;;;;;8.10;99.90;;;;;;4999763;28;20012;-71
2022/11/29 03:14:53;;;;;;;;;;;8.10;99.90;;;;;;4997094;28;20336;-72
2022/11/29 03:17:21;;;;;;;;;;;8.00;99.90;;;;;;4996787;28;19956;-74
2022/11/29 03:20:05;;;;;;;;;;;8.00;99.90;;;;;;5003867;28;19963;-73
2022/11/29 03:22:41;;;;;;;;;;;8.00;99.90;;;;;;5002427;28;19972;-73
2022/11/29 03:25:11;;;;;;;;;;;8.00;99.90;;;;;;5000111;28;19917;-73
2022/11/29 03:27:42;;;;;;;;;;;8.00;99.90;;;;;;5004271;28;19918;-73
2022/11/29 03:30:09;;;;;;;;;;;8.00;99.90;;;;;;4997009;28;19922;-72
2022/11/29 03:32:37;;;;;;;;;;;8.00;99.90;;;;;;4999118;28;20036;-74
2022/11/29 03:35:11;;;;;;;;;;;8.00;99.90;;;;;;4982439;28;19913;-71
2022/11/29 03:37:44;;;;;;;;;;;8.00;99.90;;;;;;4999904;28;19914;-73
2022/11/29 03:40:12;;;;;;;;;;;8.00;99.90;;;;;;5000163;28;20038;-70
2022/11/29 03:42:49;;;;;;;;;;;8.00;99.90;;;;;;4997016;28;19945;-73
2022/11/29 03:45:15;;;;;;;;;;;8.00;99.90;;;;;;4996600;28;19922;-73
2022/11/29 03:47:49;;;;;;;;;;;7.90;99.90;;;;;;5000163;28;19917;-73
2022/11/29 03:50:23;;;;;;;;;;;7.90;99.90;;;;;;4998143;28;19917;-73
2022/11/29 03:52:52;;;;;;;;;;;7.90;99.90;;;;;;5000167;28;19929;-73
2022/11/29 03:55:20;;;;;;;;;;;7.90;99.90;;;;;;4999942;28;20235;-72
2022/11/29 03:58:16;;;;;;;;;;;7.90;99.90;;;;;;4996646;28;19922;-73
2022/11/29 04:00:51;;;;;;;;;;;7.90;99.90;;;;;;4999479;28;19920;-72
2022/11/29 04:03:20;;;;;;;;;;;7.90;99.90;;;;;;4996614;28;20004;-73
2022/11/29 04:05:53;;;;;;;;;;;7.90;99.90;;;;;;4999629;28;20326;-73
2022/11/29 04:08:35;;;;;;;;;;;7.90;99.90;;;;;;4979280;28;19925;-73
2022/11/29 04:11:19;;;;;;;;;;;7.90;99.90;;;;;;4997583;28;19913;-72
2022/11/29 04:14:03;;;;;;;;;;;7.90;99.90;;;;;;4995282;28;19917;-72
2022/11/29 04:16:31;;;;;;;;;;;7.90;99.90;;;;;;4996946;28;20429;-73
2022/11/29 04:19:30;;;;;;;;;;;7.90;99.90;;;;;;4998362;28;20485;-71
2022/11/29 04:22:14;;;;;;;;;;;7.90;99.90;;;;;;4979980;28;19918;-74
2022/11/29 04:24:58;;;;;;;;;;;7.80;99.90;;;;;;4994467;28;20354;-73
2022/11/29 04:27:40;;;;;;;;;;;7.90;99.90;;;;;;4983638;28;19917;-73
2022/11/29 04:30:08;;;;;;;;;;;7.90;99.90;;;;;;4998521;28;20022;-72
2022/11/29 04:32:39;;;;;;;;;;;7.90;99.90;;;;;;4999861;28;19913;-73
2022/11/29 04:35:21;;;;;;;;;;;7.90;99.90;;;;;;5004005;28;19924;-73
2022/11/29 04:37:53;;;;;;;;;;;7.80;99.90;;;;;;5002221;28;19918;-73
2022/11/29 04:40:31;;;;;;;;;;;7.90;99.90;;;;;;4981304;28;19952;-73
2022/11/29 04:43:15;;;;;;;;;;;7.80;99.90;;;;;;5009986;28;19928;-72
2022/11/29 04:45:47;;;;;;;;;;;7.80;99.90;;;;;;4999492;28;20417;-73
2022/11/29 04:48:21;;;;;;;;;;;7.80;99.90;;;;;;4999880;28;19968;-73
2022/11/29 04:50:59;;;;;;;;;;;7.80;99.90;;;;;;5006113;28;20012;-74
2022/11/29 04:53:44;;;;;;;;;;;7.80;99.90;;;;;;5005212;28;20012;-70
2022/11/29 04:56:16;;;;;;;;;;;7.80;99.90;;;;;;4998850;28;19936;-73
2022/11/29 04:59:04;;;;;;;;;;;7.70;99.90;;;;;;5004285;28;20294;-74
2022/11/29 05:01:53;;;;;;;;;;;7.80;99.90;;;;;;5001706;28;19921;-73
2022/11/29 05:04:30;;;;;;;;;;;7.70;99.90;;;;;;4999807;28;19948;-73
2022/11/29 05:07:10;;;;;;;;;;;7.80;99.90;;;;;;4983660;28;19940;-73
2022/11/29 05:09:45;;;;;;;;;;;7.80;99.90;;;;;;5002204;28;20012;-73
2022/11/29 05:12:33;;;;;;;;;;;7.70;99.90;;;;;;4999195;28;20295;-73
2022/11/29 05:15:13;;;;;;;;;;;7.70;99.90;;;;;;5001247;28;19918;-74
2022/11/29 05:17:41;;;;;;;;;;;7.80;99.90;;;;;;4995476;28;20405;-74
2022/11/29 05:20:10;;;;;;;;;;;7.70;99.90;;;;;;4997640;28;20366;-72
2022/11/29 05:22:57;;;;;;;;;;;7.70;99.90;;;;;;5001946;28;19940;-74
2022/11/29 05:25:22;;;;;;;;;;;7.70;99.90;;;;;;5001526;28;19969;-72
2022/11/29 05:28:00;;;;;;;;;;;7.70;99.90;;;;;;5004051;28;19964;-72
2022/11/29 05:30:30;;;;;;;;;;;7.70;99.90;;;;;;5001311;28;20012;-73
2022/11/29 05:33:03;;;;;;;;;;;7.70;99.90;;;;;;4981660;28;19920;-74
2022/11/29 05:35:47;;;;;;;;;;;7.70;99.90;;;;;;4999426;28;20015;-73
2022/11/29 05:38:21;;;;;;;;;;;7.70;99.90;;;;;;4983901;28;20024;-74
2022/11/29 05:41:05;;;;;;;;;;;7.70;99.90;;;;;;4999385;28;19914;-74
2022/11/29 05:43:31;;;;;;;;;;;7.70;99.90;;;;;;4998111;28;19953;-73
2022/11/29 05:46:01;;;;;;;;;;;7.70;99.90;;;;;;5001347;28;20423;-71
2022/11/29 05:48:27;;;;;;;;;;;7.70;99.90;;;;;;4999872;28;20362;-74
2022/11/29 05:51:01;;;;;;;;;;;7.70;99.90;;;;;;4986223;28;19925;-73
2022/11/29 05:53:29;;;;;;;;;;;7.70;99.90;;;;;;4979931;28;20426;-73
2022/11/29 05:55:58;;;;;;;;;;;7.70;99.90;;;;;;5005768;28;20125;-74
2022/11/29 05:58:34;;;;;;;;;;;7.70;99.90;;;;;;5007878;28;19917;-74
2022/11/29 06:01:02;;;;;;;;;;;7.70;99.90;;;;;;5008315;28;19917;-74
2022/11/29 06:03:43;;;;;;;;;;;7.70;99.90;;;;;;5008663;28;19917;-73
2022/11/29 06:06:13;;;;;;;;;;;7.70;99.90;;;;;;5004454;28;19921;-73
2022/11/29 06:08:47;;;;;;;;;;;7.60;99.90;;;;;;5008512;28;19940;-71
2022/11/29 06:11:14;;;;;;;;;;;7.60;99.90;;;;;;5001318;28;19917;-74
2022/11/29 06:13:57;;;;;;;;;;;7.60;99.90;;;;;;5007608;28;19948;-73
2022/11/29 06:16:38;;;;;;;;;;;7.60;99.90;;;;;;5007949;28;20296;-74
2022/11/29 06:19:15;;;;;;;;;;;7.60;99.90;;;;;;4998378;28;19913;-73
2022/11/29 06:21:44;;;;;;;;;;;7.60;99.90;;;;;;5007139;28;20024;-73
2022/11/29 06:24:28;;;;;;;;;;;7.60;99.90;;;;;;5007172;28;19928;-74
2022/11/29 06:27:08;;;;;;;;;;;7.60;99.90;;;;;;5008865;28;20368;-73
2022/11/29 06:29:33;;;;;;;;;;;7.60;99.90;;;;;;5023201;28;19983;-73
2022/11/29 06:32:10;;;;;;;;;;;7.60;99.90;;;;;;5011214;28;20535;-73
2022/11/29 06:34:51;;;;;;;;;;;7.60;99.90;;;;;;5007224;28;19924;-73
2022/11/29 06:37:27;;;;;;;;;;;7.60;99.90;;;;;;5006803;28;20004;-73
2022/11/29 06:39:53;;;;;;;;;;;7.60;99.90;;;;;;5006217;28;19917;-74
2022/11/29 06:42:19;;;;;;;;;;;7.60;99.90;;;;;;5008066;28;19922;-72
2022/11/29 06:44:46;;;;;;;;;;;7.60;99.90;;;;;;5007655;28;19917;-74
2022/11/29 06:47:27;;;;;;;;;;;7.60;99.90;;;;;;5007833;28;19996;-73
2022/11/29 06:50:08;;;;;;;;;;;7.60;99.90;;;;;;5008677;28;19961;-74
2022/11/29 06:52:44;;;;;;;;;;;7.60;99.90;;;;;;5022936;28;19968;-73
2022/11/29 06:55:23;;;;;;;;;;;7.60;99.90;;;;;;5019482;28;19919;-72
2022/11/29 06:57:59;;;;;;;;;;;7.60;99.90;;;;;;5023547;28;19924;-74
2022/11/29 07:00:30;;;;;;;;;;;7.60;99.90;;;;;;5017259;28;19936;-72
2022/11/29 07:02:56;;;;;;;;;;;7.60;99.90;;;;;;5011552;28;19957;-73
2022/11/29 07:05:26;;;;;;;;;;;7.60;99.90;;;;;;4995648;28;19981;-73
2022/11/29 07:07:54;;;;;;;;;;;7.60;99.90;;;;;;5007400;28;19929;-74
2022/11/29 07:10:20;;;;;;;;;;;7.60;99.90;;;;;;5007834;28;19975;-74
2022/11/29 07:12:46;;;;;;;;;;;7.60;99.90;;;;;;4999294;28;19925;-72
2022/11/29 07:15:12;;;;;;;;;;;7.60;99.90;;;;;;5007331;28;19922;-73
2022/11/29 07:17:41;;;;;;;;;;;7.60;99.90;;;;;;5007780;28;19913;-73
2022/11/29 07:20:12;;;;;;;;;;;7.50;99.90;;;;;;5005242;28;19944;-74
2022/11/29 07:22:38;;;;;;;;;;;7.60;99.90;;;;;;4997655;28;19925;-72
2022/11/29 07:25:09;;;;;;;;;;;7.60;99.90;;;;;;5007048;28;19922;-74
2022/11/29 07:27:48;;;;;;;;;;;7.60;99.90;;;;;;5005684;28;19949;-74
2022/11/29 07:30:14;;;;;;;;;;;7.60;99.90;;;;;;4999329;28;19932;-74
2022/11/29 07:32:51;;;;;;;;;;;7.60;99.90;;;;;;5007022;28;20333;-73
2022/11/29 07:35:20;;;;;;;;;;;7.60;99.90;;;;;;5006674;28;19917;-73
2022/11/29 07:37:48;;;;;;;;;;;7.60;99.90;;;;;;5006928;28;20018;-72
2022/11/29 07:40:18;;;;;;;;;;;7.60;99.90;;;;;;5006737;28;19925;-73
2022/11/29 07:42:43;;;;;;;;;;;7.60;99.90;;;;;;5006762;28;19971;-73
2022/11/29 07:45:28;;;;;;;;;;;7.60;99.90;;;;;;5006712;28;20336;-74
2022/11/29 07:47:54;;;;;;;;;;;7.60;99.90;;;;;;4998306;28;19964;-73
2022/11/29 07:50:19;;;;;;;;;;;7.60;99.90;;;;;;5005815;28;20063;-73
2022/11/29 07:52:46;;;;;;;;;;;7.60;99.90;;;;;;5005717;28;19921;-73
2022/11/29 07:55:12;;;;;;;;;;;7.60;99.90;;;;;;5011504;28;19913;-73
2022/11/29 07:57:37;;;;;;;;;;;7.60;99.90;;;;;;5012829;28;19921;-72
2022/11/29 08:00:03;;;;;;;;;;;7.60;99.90;;;;;;5006664;28;19913;-74
2022/11/29 08:02:29;;;;;;;;;;;7.70;99.90;;;;;;5007186;28;19948;-72
2022/11/29 08:04:55;;;;;;;;;;;7.60;99.90;;;;;;5006609;28;19929;-73
2022/11/29 08:07:21;;;;;;;;;;;7.60;99.90;;;;;;5010305;28;19918;-72
2022/11/29 08:09:46;;;;;;;;;;;7.70;99.90;;;;;;5011003;28;19917;-73
2022/11/29 08:12:12;;;;;;;;;;;7.60;99.90;;;;;;5008124;28;19920;-74
2022/11/29 08:14:37;;;;;;;;;;;7.60;99.90;;;;;;5010128;28;19997;-73
2022/11/29 08:17:03;;;;;;;;;;;7.60;99.90;;;;;;5005419;28;19913;-72
2022/11/29 08:19:29;;;;;;;;;;;7.60;99.90;;;;;;5008644;28;19984;-74
2022/11/29 08:21:54;;;;;;;;;;;7.70;99.90;;;;;;5016166;28;19968;-73
2022/11/29 08:24:20;;;;;;;;;;;7.60;99.90;;;;;;5013376;28;19929;-73
2022/11/29 08:26:46;;;;;;;;;;;7.60;99.90;;;;;;5010659;28;20451;-74
2022/11/29 08:29:11;;;;;;;;;;;7.60;99.90;;;;;;5011738;28;19913;-74
2022/11/29 08:31:37;;;;;;;;;;;7.60;99.90;;;;;;5009766;28;19917;-74
2022/11/29 08:34:04;;;;;;;;;;;7.70;99.90;;;;;;5009406;28;20003;-74
2022/11/29 08:36:30;;;;;;;;;;;7.60;99.90;;;;;;5003690;28;19928;-75
2022/11/29 08:38:56;;;;;;;;;;;7.70;99.90;;;;;;4999537;28;19913;-74
2022/11/29 08:41:21;;;;;;;;;;;7.70;99.90;;;;;;4998731;28;19952;-73
2022/11/29 08:43:47;;;;;;;;;;;7.70;99.90;;;;;;5009686;28;19945;-73
2022/11/29 08:46:12;;;;;;;;;;;7.70;99.90;;;;;;5009405;28;19917;-74
2022/11/29 08:48:38;;;;;;;;;;;7.70;99.90;;;;;;4992789;28;19917;-74
2022/11/29 08:51:04;;;;;;;;;;;7.70;99.90;;;;;;5001910;28;19971;-73
2022/11/29 08:53:45;;;;;;;;;;;7.80;99.90;;;;;;5010302;28;19924;-74
2022/11/29 08:56:15;;;;;;;;;;;7.70;99.90;;;;;;5002199;28;19928;-74
2022/11/29 08:58:40;;;;;;;;;;;7.80;99.90;;;;;;5016692;28;19924;-74
2022/11/29 09:01:13;;;;;;;;;;;7.80;99.90;;;;;;5005331;28;19913;-73
2022/11/29 09:06:22;;;;;;;;;;;7.80;99.90;;;;;;5009300;28;19919;-74
2022/11/29 09:08:48;;;;;;;;;;;7.90;99.90;;;;;;5023769;28;19921;-74
2022/11/29 09:11:18;;;;;;;;;;;7.80;99.90;;;;;;5009198;28;19917;-75
2022/11/29 09:13:45;;;;;;;;;;;7.80;99.90;;;;;;5008314;28;19924;-73
2022/11/29 09:16:12;;;;;;;;;;;7.90;99.90;;;;;;5009235;28;20393;-73
2022/11/29 09:18:38;;;;;;;;;;;7.90;99.90;;;;;;5000485;28;20470;-75
2022/11/29 09:21:04;;;;;;;;;;;8.00;99.90;;;;;;5007547;28;19913;-74
2022/11/29 09:23:30;;;;;;;;;;;8.00;99.90;;;;;;5000914;28;19997;-76
2022/11/29 09:25:55;;;;;;;;;;;8.00;99.90;;;;;;5008970;28;20341;-74
2022/11/29 09:28:21;;;;;;;;;;;8.00;99.90;;;;;;5008948;28;20008;-74
2022/11/29 09:30:48;;;;;;;;;;;8.00;99.90;;;;;;4998215;28;19927;-74
2022/11/29 09:33:13;;;;;;;;;;;8.00;99.90;;;;;;5007465;28;19917;-73
2022/11/29 09:35:39;;;;;;;;;;;8.10;99.90;;;;;;5008952;28;20337;-74
2022/11/29 09:38:04;;;;;;;;;;;8.10;99.90;;;;;;5008121;28;19914;-74
2022/11/29 09:40:37;;;;;;;;;;;8.20;99.90;;;;;;5009001;28;20424;-73
2022/11/29 09:43:02;;;;;;;;;;;8.10;99.90;;;;;;5008511;28;19917;-73
2022/11/29 09:45:35;;;;;;;;;;;8.20;99.90;;;;;;5009026;28;20362;-75
2022/11/29 09:48:22;;;;;;;;;;;8.20;99.90;;;;;;5008398;28;19914;-74
2022/11/29 09:50:51;;;;;;;;;;;8.30;99.90;;;;;;5007471;28;19941;-75
2022/11/29 09:53:36;;;;;;;;;;;8.30;99.90;;;;;;5000029;28;19997;-73
2022/11/29 09:56:02;;;;;;;;;;;8.30;99.90;;;;;;5007934;28;20297;-73
2022/11/29 09:58:30;;;;;;;;;;;8.30;99.90;;;;;;5010483;28;19913;-74
2022/11/29 10:00:58;;;;;;;;;;;8.30;99.90;;;;;;5007483;28;19952;-75
2022/11/29 10:03:30;;;;;;;;;;;8.40;99.90;;;;;;5011914;28;19914;-75
2022/11/29 10:06:01;;;;;;;;;;;8.30;99.90;;;;;;5007382;28;20301;-75
2022/11/29 10:08:38;;;;;;;;;;;8.30;99.90;;;;;;5009406;28;19917;-73
2022/11/29 10:11:12;;;;;;;;;;;8.30;99.90;;;;;;5009197;28;19917;-74
2022/11/29 10:13:43;;;;;;;;;;;8.30;99.90;;;;;;5007388;28;19924;-74
2022/11/29 10:16:32;;;;;;;;;;;8.30;99.90;;;;;;5007863;28;19920;-74
2022/11/29 10:19:00;;;;;;;;;;;8.40;99.90;;;;;;4994529;28;19924;-74
2022/11/29 10:21:33;;;;;;;;;;;8.40;99.90;;;;;;5004145;28;20485;-73
2022/11/29 10:24:01;;;;;;;;;;;8.40;99.90;;;;;;5003759;28;19925;-75
2022/11/29 10:26:27;;;;;;;;;;;8.40;99.90;;;;;;5006337;28;19924;-73
2022/11/29 10:28:55;;;;;;;;;;;8.40;99.90;;;;;;4998275;28;19921;-74
2022/11/29 10:31:23;;;;;;;;;;;8.40;99.90;;;;;;5003498;28;19921;-74
2022/11/29 10:33:49;;;;;;;;;;;8.50;99.90;;;;;;4999811;28;19917;-74
2022/11/29 10:36:37;;;;;;;;;;;8.50;99.90;;;;;;5005195;28;19914;-72
2022/11/29 10:39:04;;;;;;;;;;;8.50;99.90;;;;;;4997716;28;20042;-75
2022/11/29 10:41:30;;;;;;;;;;;8.60;99.90;;;;;;4993703;28;20397;-73
2022/11/29 10:43:57;;;;;;;;;;;8.70;99.90;;;;;;5005154;28;19914;-75
2022/11/29 10:46:28;;;;;;;;;;;8.60;99.90;;;;;;5005056;28;19913;-73
2022/11/29 10:48:54;;;;;;;;;;;8.70;99.90;;;;;;5005153;28;19972;-73
2022/11/29 10:51:20;;;;;;;;;;;8.80;99.90;;;;;;5004299;28;19922;-74
2022/11/29 10:53:46;;;;;;;;;;;8.80;99.90;;;;;;4997686;28;20542;-73
2022/11/29 10:56:28;;;;;;;;;;;8.80;99.90;;;;;;5005188;28;19961;-74
2022/11/29 10:59:01;;;;;;;;;;;8.80;99.90;;;;;;4992313;28;19917;-74
2022/11/29 11:01:28;;;;;;;;;;;8.90;99.90;;;;;;5006353;28;20027;-74
2022/11/29 11:03:55;;;;;;;;;;;8.90;99.90;;;;;;5006249;28;20393;-76
2022/11/29 11:06:25;;;;;;;;;;;8.80;99.90;;;;;;5009515;28;20354;-74
2022/11/29 11:08:51;;;;;;;;;;;8.80;99.90;;;;;;5002935;28;19920;-75
2022/11/29 11:11:24;;;;;;;;;;;8.80;99.90;;;;;;5018872;28;19917;-74
2022/11/29 11:13:57;;;;;;;;;;;8.90;99.90;;;;;;5021615;28;19913;-73
2022/11/29 11:16:23;;;;;;;;;;;8.90;99.90;;;;;;5019052;28;20020;-72
2022/11/29 11:18:48;;;;;;;;;;;9.00;99.90;;;;;;5000178;28;19921;-73
2022/11/29 11:21:16;;;;;;;;;;;8.90;99.90;;;;;;5004579;28;19923;-74
2022/11/29 11:23:51;;;;;;;;;;;8.90;99.90;;;;;;4997050;28;19921;-73
2022/11/29 11:26:16;;;;;;;;;;;8.90;99.90;;;;;;5002339;28;19987;-74
2022/11/29 11:28:47;;;;;;;;;;;9.00;99.90;;;;;;5004985;28;19917;-75
2022/11/29 11:31:12;;;;;;;;;;;9.00;99.90;;;;;;4999740;28;19917;-76
2022/11/29 11:33:39;;;;;;;;;;;9.10;99.90;;;;;;4996518;28;19983;-73
2022/11/29 11:36:05;;;;;;;;;;;9.00;99.90;;;;;;5001115;28;19917;-75
2022/11/29 11:38:31;;;;;;;;;;;9.00;99.90;;;;;;5005565;28;19917;-75
2022/11/29 11:41:16;;;;;;;;;;;9.10;99.90;;;;;;5007459;28;19921;-76
2022/11/29 11:43:42;;;;;;;;;;;9.00;99.90;;;;;;5007833;28;19937;-75
2022/11/29 11:46:08;;;;;;;;;;;9.10;99.90;;;;;;5009841;28;19913;-75
2022/11/29 11:48:33;;;;;;;;;;;9.20;99.90;;;;;;5009366;28;19913;-76
2022/11/29 11:50:59;;;;;;;;;;;9.20;99.90;;;;;;4999839;28;19972;-75
2022/11/29 11:53:27;;;;;;;;;;;9.20;99.90;;;;;;5008628;28;19917;-76
2022/11/29 11:55:53;;;;;;;;;;;9.20;99.90;;;;;;5009134;28;19925;-75
2022/11/29 11:58:22;;;;;;;;;;;9.20;99.90;;;;;;5001310;28;19914;-75
2022/11/29 12:00:49;;;;;;;;;;;9.20;99.90;;;;;;5002522;28;19964;-76
2022/11/29 12:03:30;;;;;;;;;;;9.30;99.90;;;;;;5009933;28;19956;-74
2022/11/29 12:05:59;;;;;;;;;;;9.20;99.90;;;;;;5009367;28;19924;-74
2022/11/29 12:08:26;;;;;;;;;;;9.20;99.90;;;;;;5020612;28;19941;-75
2022/11/29 12:10:54;;;;;;;;;;;9.10;99.90;;;;;;5021835;28;19928;-75
2022/11/29 12:13:23;;;;;;;;;;;9.10;99.90;;;;;;5013254;28;20342;-75
2022/11/29 12:15:49;;;;;;;;;;;9.10;99.90;;;;;;5005754;28;19920;-75
2022/11/29 12:18:19;;;;;;;;;;;9.10;99.90;;;;;;5008144;28;19914;-75
2022/11/29 12:20:52;;;;;;;;;;;9.10;99.90;;;;;;5006053;28;19918;-75
2022/11/29 12:23:36;;;;;;;;;;;9.00;99.90;;;;;;5008659;28;19952;-75
2022/11/29 12:26:13;;;;;;;;;;;9.00;99.90;;;;;;5006778;28;20353;-75
2022/11/29 12:28:40;;;;;;;;;;;8.90;99.90;;;;;;5006155;28;19921;-75
2022/11/29 12:31:17;;;;;;;;;;;8.90;99.90;;;;;;4998853;28;19971;-75
2022/11/29 12:34:03;;;;;;;;;;;8.90;99.90;;;;;;5007806;28;20482;-75
2022/11/29 12:36:31;;;;;;;;;;;9.00;99.90;;;;;;4999501;28;19917;-72
2022/11/29 12:39:02;;;;;;;;;;;9.10;99.90;;;;;;4995926;28;20691;-74
2022/11/29 12:41:33;;;;;;;;;;;9.20;99.90;;;;;;5000195;28;20548;-74
2022/11/29 12:44:18;;;;;;;;;;;9.40;99.90;;;;;;4988217;28;19951;-73
2022/11/29 12:46:47;;;;;;;;;;;9.40;99.90;;;;;;5003577;28;19922;-75
2022/11/29 12:49:12;;;;;;;;;;;9.50;99.90;;;;;;5003709;28;19928;-73
2022/11/29 12:51:43;;;;;;;;;;;9.50;99.90;;;;;;4999020;28;19914;-73
2022/11/29 12:54:21;;;;;;;;;;;9.50;99.90;;;;;;5002549;28;19917;-76
2022/11/29 12:56:50;;;;;;;;;;;9.60;99.90;;;;;;4990511;28;19921;-75
2022/11/29 12:59:15;;;;;;;;;;;9.60;99.90;;;;;;4990184;28;20307;-73
2022/11/29 13:01:51;;;;;;;;;;;9.60;99.90;;;;;;5001924;28;19928;-74
2022/11/29 13:04:20;;;;;;;;;;;9.60;99.90;;;;;;5000472;28;19968;-73
2022/11/29 13:06:52;;;;;;;;;;;9.50;99.90;;;;;;4994605;28;19913;-74
2022/11/29 13:09:21;;;;;;;;;;;9.50;99.90;;;;;;4997584;28;19917;-73
2022/11/29 13:12:01;;;;;;;;;;;9.40;99.90;;;;;;4995763;28;20298;-75
2022/11/29 13:14:31;;;;;;;;;;;9.40;99.90;;;;;;5005839;28;19921;-74
2022/11/29 13:16:58;;;;;;;;;;;9.40;99.90;;;;;;5008526;28;19967;-74
2022/11/29 13:19:31;;;;;;;;;;;9.40;99.90;;;;;;5013076;28;20405;-74
2022/11/29 13:22:17;;;;;;;;;;;9.50;99.90;;;;;;5014285;28;20177;-73
2022/11/29 13:24:49;;;;;;;;;;;9.60;99.90;;;;;;5006478;28;19964;-75
2022/11/29 13:27:18;;;;;;;;;;;9.60;99.90;;;;;;5004345;28;19917;-74
2022/11/29 13:29:44;;;;;;;;;;;9.60;99.90;;;;;;4988310;28;19928;-75
2022/11/29 13:32:17;;;;;;;;;;;9.60;99.90;;;;;;5003618;28;19949;-75
2022/11/29 13:34:45;;;;;;;;;;;9.50;99.90;;;;;;5005231;28;19950;-74
2022/11/29 13:37:29;;;;;;;;;;;9.50;99.90;;;;;;5005268;28;19917;-74
2022/11/29 13:40:14;;;;;;;;;;;9.50;99.90;;;;;;5005074;28;19922;-72
2022/11/29 13:42:46;;;;;;;;;;;9.50;99.90;;;;;;5005583;28;19917;-75
2022/11/29 13:45:11;;;;;;;;;;;9.50;99.90;;;;;;5005356;28;19940;-73
2022/11/29 13:47:47;;;;;;;;;;;9.50;99.90;;;;;;5007116;28;19913;-74
2022/11/29 13:50:31;;;;;;;;;;;9.50;99.90;;;;;;4987962;28;19913;-74
2022/11/29 13:53:02;;;;;;;;;;;9.50;99.90;;;;;;5004421;28;19924;-74
2022/11/29 13:55:27;;;;;;;;;;;9.40;99.90;;;;;;5005336;28;20349;-74
2022/11/29 13:57:55;;;;;;;;;;;9.40;99.90;;;;;;5006807;28;19917;-75
2022/11/29 14:00:24;;;;;;;;;;;9.40;99.90;;;;;;5007091;28;20028;-75
2022/11/29 14:02:49;;;;;;;;;;;9.40;99.90;;;;;;4998444;28;19970;-74
2022/11/29 14:05:27;;;;;;;;;;;9.40;99.90;;;;;;5006254;28;20305;-71
2022/11/29 14:08:11;;;;;;;;;;;9.40;99.90;;;;;;5006360;28;19918;-74
2022/11/29 14:10:37;;;;;;;;;;;9.40;99.90;;;;;;5005473;28;20332;-73
2022/11/29 14:13:03;;;;;;;;;;;9.30;99.90;;;;;;5006085;28;20008;-74
2022/11/29 14:15:30;;;;;;;;;;;9.30;99.90;;;;;;5006590;28;20279;-73
2022/11/29 14:18:01;;;;;;;;;;;9.30;99.90;;;;;;5006020;28;19913;-74
2022/11/29 14:20:27;;;;;;;;;;;9.30;99.90;;;;;;5006645;28;20338;-73
2022/11/29 14:23:05;;;;;;;;;;;9.30;99.90;;;;;;5005772;28;20007;-75
2022/11/29 14:25:38;;;;;;;;;;;9.30;99.90;;;;;;4992325;28;19979;-74
2022/11/29 14:28:13;;;;;;;;;;;9.30;99.90;;;;;;4998124;28;19922;-74
2022/11/29 14:30:41;;;;;;;;;;;9.20;99.90;;;;;;4994938;28;19967;-72
2022/11/29 14:33:25;;;;;;;;;;;9.30;99.90;;;;;;5006485;28;19913;-73
2022/11/29 14:36:03;;;;;;;;;;;9.20;99.90;;;;;;5011888;28;20420;-74
2022/11/29 14:38:47;;;;;;;;;;;9.20;99.90;;;;;;5011255;28;19920;-74
2022/11/29 14:41:19;;;;;;;;;;;9.20;99.90;;;;;;5005246;28;19917;-74
2022/11/29 14:43:45;;;;;;;;;;;9.20;99.90;;;;;;5005381;28;20008;-73
2022/11/29 14:46:10;;;;;;;;;;;9.20;99.90;;;;;;5006006;28;20003;-73
2022/11/29 14:48:37;;;;;;;;;;;9.20;99.90;;;;;;4996076;28;19924;-73
2022/11/29 14:51:10;;;;;;;;;;;9.20;99.90;;;;;;5001187;28;20301;-74
2022/11/29 14:53:37;;;;;;;;;;;9.20;99.90;;;;;;5003088;28;19925;-74
2022/11/29 14:56:21;;;;;;;;;;;9.20;99.90;;;;;;5005413;28;19921;-73